Barcroft Research Lab Weather observations

Data are for 10 minute period ending at time listed.
 Day   Time   Solar   Ave.   Ave.  Ave.  Vector  Std.   Max.    Baro.    
  of    of     Rad.   Air    Rel.  Wind   Wind   Dev.   Wind   Press.    
Year   Day            Temp.  Hum.  Speed  Dir.   Dir.   Gust            
2015   (PST)  Kw/m2    F      %     mph   deg.   deg.    mph     mb.    
------------------------------------------------------------------------
  26   14:20      47   27.5    57    5.7   135    -99    10.7   643.10  
  26   14:30      29   27.1    56    4.6   118    -99     8.3   643.10  
  26   14:40      19   25.9    55    4.7    72    -99     7.6   643.10  
  26   14:50      12   25.2    56    9.7   102    -99    14.5   643.10  
  26   15:00       6   24.3    58    9.2   102    -99    14.0   643.10  
  26   15:10       2   23.8    59    8.7   100    -99    13.0   642.90  
  26   15:20       1   23.3    63    9.6    89    -99    15.5   642.90  
  26   15:30       0   23.2    62    9.2    81    -99    17.2   642.90  
  26   15:40       0   23.2    63    9.6   102    -99    12.4   642.90  
  26   15:50       0   22.8    69   11.3    87    -99    16.9   642.90  
  26   16:00       0   22.2    77   13.6    90    -99    19.1   642.90  
  26   16:10       0   22.2    74   12.7    84    -99    18.0   642.80  
  26   16:20       0   22.8    69   13.3    82    -99    19.6   642.80  
  26   16:30       0   22.7    76   12.3   100    -99    17.5   642.80  
  26   16:40       0   22.3    80   13.4    90    -99    18.3   642.80  
  26   16:50       0   21.6    84   12.2    85    -99    16.7   642.80  
  26   17:00       0   20.8    90   11.7    90    -99    16.3   642.80  
  26   17:10       0   20.0    95    9.9    94    -99    14.3   642.50  
  26   17:20       0   20.4    99   13.5    82    -99    18.6   642.50  
  26   17:30       0   20.9    99   12.7    79    -99    19.7   642.50  
  26   17:40       0   21.0    99   10.9    80    -99    14.4   642.50  
  26   17:50       0   20.9    99    8.4   101    -99    12.6   642.50  
  26   18:00       0   20.9    99   10.5   119    -99    15.6   642.50  
  26   18:10       0   20.9    99   10.2    95    -99    13.7   642.50  
  26   18:20       0   20.7    99    9.1   109    -99    13.5   642.50  
  26   18:30       0   20.5    99    9.2   117    -99    13.7   642.50  
  26   18:40       0   20.2    99    8.8   104    -99    12.6   642.50  
  26   18:50       0   20.4    99    9.8   101    -99    13.8   642.50  
  26   19:00       0   20.8    99    9.2    96    -99    13.7   642.50  
  26   19:10       0   21.0    99    7.1    97    -99     9.9   641.90  
  26   19:20       0   21.2    99    5.7    97    -99     7.8   641.90  
  26   19:30       0   21.1    99    6.3    81    -99     8.6   641.90  
  26   19:40       0   21.0    99    6.6    78    -99     8.3   641.90  
  26   19:50       0   21.0    99    5.7    82    -99     7.2   641.90  
  26   20:00       0   21.1    99    5.4    76    -99     8.0   641.90  
  26   20:10       0   21.2   100    3.9    73    -99     7.0   641.60  
  26   20:20       0   21.6   100    3.7   104    -99     6.3   641.60  
  26   20:30       0   22.2   100    5.7   102    -99     7.8   641.60  
  26   20:40       0   21.6    99    5.0    76    -99     7.4   641.60  
  26   20:50       0   20.9    99    4.8    68    -99     6.6   641.60  
  26   21:00       0   20.9    99    3.7    66    -99     6.5   641.60  
  26   21:10       0   20.6    99    7.1   106    -99    10.4   641.30  
  26   21:20       0   20.7   100    8.3   117    -99    11.8   641.30  
  26   21:30       0   21.1   100    9.1   121    -99    14.3   641.30  
  26   21:40       0   21.3   100   10.1   133    -99    14.3   641.30  
  26   21:50       0   21.4   100    9.3   136    -99    13.5   641.30  
  26   22:00       0   21.3   100    9.1   142    -99    13.7   641.30  
  26   22:10       0   21.1   100   10.0   145    -99    15.9   641.00  
  26   22:20       0   20.9    99   10.6   141    -99    16.4   641.00  
  26   22:30       0   20.6    99    9.2   141    -99    16.4   641.00  
  26   22:40       0   20.4    99    7.5   150    -99    15.8   641.00  
  26   22:50       0   20.3    99    6.1   151    -99    10.1   641.00  
  26   23:00       0   19.9    99    5.8   152    -99     9.0   641.00  
  26   23:10       0   19.7    99    5.2   150    -99     8.8   640.60  
  26   23:20       0   19.9    99    6.5   165    -99    13.3   640.60  
  26   23:30       0   20.2    99    7.5   179    -99    13.8   640.60  
  26   23:40       0   20.4   100    7.0   183    -99    12.4   640.60  
  26   23:50       0   20.6    99    5.9   190    -99    12.6   640.60  
  27    0:00       0   20.3    99    4.5   203    -99    10.7   640.60  
  27    0:10       0   20.9   100    4.2   209    -99    10.8   640.30  
  27    0:20       0   20.9   100    6.0   228    -99     9.5   640.30  
  27    0:30       0   20.5    99    3.1   212    -99     7.0   640.30  
  27    0:40       0   20.1    99    3.9   201    -99     9.4   640.30  
  27    0:50       0   19.9    99    4.4   213    -99     8.9   640.30  
  27    1:00       0   19.8    99    5.4   218    -99    10.3   640.30  
  27    1:10       0   19.6    99    6.4   226    -99    11.0   640.10  
  27    1:20       0   19.4    99    7.3   226    -99    12.3   640.10  
  27    1:30       0   19.4    99    7.6   228    -99    11.5   640.10  
  27    1:40       0   19.1    99    6.1   221    -99    13.3   640.10  
  27    1:50       0   19.0    99    5.4   209    -99    11.3   640.10  
  27    2:00       0   19.1    99    5.3   206    -99    11.7   640.10  
  27    2:10       0   19.1    99    5.0   217    -99     9.1   640.00  
  27    2:20       0   19.0    99    6.3   223    -99    10.3   640.00  
  27    2:30       0   18.8    99    8.4   221    -99    15.3   640.00  
  27    2:40       0   18.6    99    6.9   220    -99    14.0   640.00  
  27    2:50       0   18.4    99    8.6   227    -99    13.9   640.00  
  27    3:00       0   18.3    99    8.6   228    -99    12.5   640.00  
  27    3:10       0   18.4    99    8.4   229    -99    11.4   639.90  
  27    3:20       0   18.2    98    7.9   227    -99    11.9   639.90  
  27    3:30       0   18.1    99    7.0   223    -99    11.8   639.90  
  27    3:40       0   18.2    99    8.6   230    -99    13.4   639.90  
  27    3:50       0   18.3    99    7.3   229    -99    11.2   639.90  
  27    4:00       0   18.4    99    5.9   224    -99    10.1   639.90  
  27    4:10       0   18.4    99    6.0   227    -99    10.3   640.20  
  27    4:20       0   18.2    98    6.3   231    -99     9.9   640.20  
  27    4:30       0   17.9    98    7.3   237    -99     9.5   640.20  
  27    4:40       0   17.5    98    7.4   240    -99     9.5   640.20  
  27    4:50       1   17.3    98    7.1   242    -99     9.2   640.20  
  27    5:00       3   17.5    98    6.8   260    -99     8.7   640.20  
  27    5:10       6   17.5    98    5.9   254    -99     8.6   640.50  
  27    5:20      26   17.9    98    5.3   244    -99     6.9   640.50  
  27    5:30      54   18.1    99    5.2   232    -99     6.9   640.50  
  27    5:40      68   18.3    99    5.6   239    -99     7.6   640.50  
  27    5:50      56   18.1    98    6.6   235    -99     8.4   640.50  
  27    6:00     110   18.4    99    6.5   251    -99     8.3   640.50  
  27    6:10     133   18.5    98    6.4   257    -99     9.1   640.70  
  27    6:20     200   18.8    98    6.5   263    -99     9.3   640.70  
  27    6:30     211   18.9    98    6.0   266    -99     9.9   640.70  
  27    6:40     228   19.2    98    5.3   274    -99     8.4   640.70  
  27    6:50     304   19.5    98    5.6   271    -99     9.1   640.70  
  27    7:00     408   19.9    98    6.6   276    -99    10.7   640.70  
  27    7:10     508   20.6    98    7.2   276    -99    10.2   640.80  
  27    7:20     441   20.1    98    7.4   274    -99    12.1   640.80  
  27    7:30     437   19.7    98   10.6   270    -99    20.0   640.80  
  27    7:40     410   19.1    98   12.4   274    -99    20.5   640.80  
  27    7:50     439   18.9    98   12.6   270    -99    21.3   640.80  
  27    8:00     452   19.0    98   13.2   276    -99    20.8   640.80  
  27    8:10     475   19.2    98   12.1   276    -99    18.5   641.30  
  27    8:20     517   19.6    98   12.0   275    -99    19.4   641.30  
  27    8:30     527   20.0    98   12.3   280    -99    17.4   641.30  
  27    8:40     597   20.0    98   12.5   280    -99    16.7   641.30  
  27    8:50     612   20.6    98   11.2   273    -99    16.5   641.30  
  27    9:00     661   21.2    98   11.6   271    -99    18.4   641.30  
  27    9:10     634   21.0    98   12.1   291    -99    16.7   641.40  
  27    9:20     653   20.8    98   11.1   289    -99    17.0   641.40  
  27    9:30     587   20.6    98   10.2   286    -99    15.8   641.40  
  27    9:40     822   21.5    98   11.4   269    -99    17.9   641.40  
  27    9:50     660   20.9    97   11.7   273    -99    20.1   641.40  
  27   10:00     915   21.6    98   10.7   282    -99    16.4   641.40  
  27   10:10     691   21.3    97   10.2   278    -99    17.0   641.30  
  27   10:20     657   20.9    97    9.2   275    -99    15.6   641.30  
  27   10:30     442   20.2    97   10.7   286    -99    16.5   641.30  
  27   10:40     508   20.4    97   10.7   282    -99    16.7   641.30  
  27   10:50     406   20.5    97    9.3   260    -99    17.7   641.30  
  27   11:00     413   19.6    97   10.2   266    -99    18.1   641.30  
  27   11:10     576   20.3    97   10.2   266    -99    19.3   641.20  
  27   11:20     582   20.7    97    9.4   272    -99    14.8   641.20  
  27   11:30     766   21.6    97    8.9   292    -99    15.7   641.20  
  27   11:40     797   22.1    97    7.6   276    -99    13.2   641.20  
  27   11:50     316   21.3    96    7.7   285    -99    12.6   641.20  
  27   12:00     353   20.2    97    7.6   274    -99    11.0   641.20  
  27   12:10     338   20.5    97    7.9   280    -99    12.6   641.40  
  27   12:20     497   20.5    98    8.0   286    -99    12.0   641.40  
  27   12:30     403   20.9    97    9.3   301    -99    15.5   641.40  
  27   12:40     183   19.4    96    9.6   289    -99    12.6   641.40  
  27   12:50     249   19.3    98   10.1   291    -99    14.2   641.40  
  27   13:00     204   19.1    98   11.0   289    -99    14.8   641.40  
  27   13:10     222   19.2    97   12.0   285    -99    16.4   641.50  
  27   13:20     218   19.1    98   12.4   284    -99    16.3   641.50  
  27   13:30     243   19.4    98   14.1   284    -99    19.6   641.50  
  27   13:40      98   19.0    98   15.0   284    -99    20.8   641.50  
  27   13:50     128   18.7    98   14.1   280    -99    19.2   641.50  
  27   14:00      90   18.7    98   12.7   286    -99    18.5   641.50  
  27   14:10      47   18.5    99    8.7   304    -99    15.7   641.60  

Return to Barcroft Research Lab graphs page.


Western Regional Climate Center,wrcc@dri.edu